Terminal Aerodrome Forecast
Issued by NWS Sterling, VA

Current Version | Previous Version | Graphics & Text | Print | Product List | Glossary On
Versions: 1 2 3 4 5 6 7 8 9 10 11 12 13 14 15 16 17 18 19 20 21 22 23 24 25 26 27 28
204
FTUS41 KLWX 240830 AAA
TAFIAD
TAF AMD
KIAD 240830Z 2409/2512 30004KT 5SM BR SCT080 BKN200
     FM241200 31006KT P6SM FEW080 FEW250
     FM250200 25004KT P6SM FEW070 FEW250=

USA.gov is the U.S. government's official web portal to all federal, state and local government web resources and services.